Terminal Aerodrome Forecast
Issued by NWS

Home | Current Version | Previous Version | Text Only | Print | Product List | Glossary On
Versions: 1 2 3 4 5 6 7 8 9 10 11 12 13 14 15 16 17
000
FTUS46 KPDT 050530 CCA
TAFDLS
TAF COR
KDLS 050530Z 0506/0606 29011G19KT P6SM SCT250
     FM050800 30008KT P6SM FEW250
     FM051600 33011KT P6SM SKC
     FM060300 32007KT P6SM SKC=

USA.gov is the U.S. government's official web portal to all federal, state and local government web resources and services.